HUAL Seoul — LADO6 — position and weather

sailwx.info

Track history (hours):
 
Tides and Currents Weather Stations Pressure Air Temp Water Temp Dewpoint Dewpoint Depression Visibility Wind Speed Wind Dir Waves Ship Positions

HUAL Seoul

Last reported at 2014-Oct-12 12:30 UTC. Time now 2014-Oct-23 08:48 UTC.
Position N 23°57' W 114°09'.
Warning: this ship's position is 10 days out of date.

Type: Cargo ship. MMSI: 257496000.

Date/timePositionNaut miles runAvg speedWind from/ knotsBaromVisibWave heightAir tempDewpointWater temp
2014-Oct-12 12:30N 23°57' W 114°09'1717.7
2014-Oct-12 11:33N 24°05' W 114°25'6017.5
2014-Oct-12 08:07N 24°32' W 115°24'1017.1
2014-Oct-12 07:31N 24°36' W 115°34'7117.3
2014-Oct-12 03:26N 25°08' W 116°44'1517.5
2014-Oct-12 02:33N 25°16' W 116°59'19617.4
2014-Oct-11 15:21N 26°42' W 120°14'1417.3
2014-Oct-11 14:33N 26°45' W 120°29'10617.5
2014-Oct-11 08:28N 27°12' W 122°24'5117.5
2014-Oct-11 05:32N 27°25' W 123°20'1717.3
2014-Oct-11 04:33N 27°30' W 123°39'2317.3
2014-Oct-11 03:14N 27°36' W 124°04'11817.5
2014-Oct-10 20:28N 28°06' W 126°13'1917.6
2014-Oct-10 19:23N 28°10' W 126°34'  
Track history (hours):
 
Tides and Currents Weather Stations Pressure Air Temp Water Temp Dewpoint Dewpoint Depression Visibility Wind Speed Wind Dir Waves Ship Positions

HUAL Seoul

Last reported at 2014-Oct-12 12:30 UTC. Time now 2014-Oct-23 08:48 UTC.
Position N 23°57' W 114°09'.
Warning: this ship's position is 10 days out of date.

Type: Cargo ship. MMSI: 257496000.

Date/timePositionNaut miles runAvg speedWind from/ knotsBaromVisibWave heightAir tempDewpointWater temp
2014-Oct-12 12:30N 23°57' W 114°09'1717.7
2014-Oct-12 11:33N 24°05' W 114°25'6017.5
2014-Oct-12 08:07N 24°32' W 115°24'1017.1
2014-Oct-12 07:31N 24°36' W 115°34'7117.3
2014-Oct-12 03:26N 25°08' W 116°44'1517.5
2014-Oct-12 02:33N 25°16' W 116°59'19617.4
2014-Oct-11 15:21N 26°42' W 120°14'1417.3
2014-Oct-11 14:33N 26°45' W 120°29'10617.5
2014-Oct-11 08:28N 27°12' W 122°24'5117.5
2014-Oct-11 05:32N 27°25' W 123°20'1717.3
2014-Oct-11 04:33N 27°30' W 123°39'2317.3
2014-Oct-11 03:14N 27°36' W 124°04'11817.5
2014-Oct-10 20:28N 28°06' W 126°13'1917.6
2014-Oct-10 19:23N 28°10' W 126°34'  

Dump ship's entire track history